sensor_id;sensor_type;location;lat;lon;timestamp;P1;durP1;ratioP1;P2;durP2;ratioP2
51866;SDS011;52862;52.504;13.480;2023-05-10T00:01:22;20.43;;;6.67;;
51866;SDS011;52862;52.504;13.480;2023-05-10T00:03:49;47.67;;;19.30;;
51866;SDS011;52862;52.504;13.480;2023-05-10T00:06:17;13.00;;;6.10;;
51866;SDS011;52862;52.504;13.480;2023-05-10T00:08:44;17.53;;;7.77;;
51866;SDS011;52862;52.504;13.480;2023-05-10T00:11:11;21.67;;;7.80;;
51866;SDS011;52862;52.504;13.480;2023-05-10T00:13:38;24.57;;;7.20;;
51866;SDS011;52862;52.504;13.480;2023-05-10T00:16:05;16.77;;;7.00;;
51866;SDS011;52862;52.504;13.480;2023-05-10T00:18:32;19.87;;;6.67;;
51866;SDS011;52862;52.504;13.480;2023-05-10T00:20:59;13.63;;;6.77;;
51866;SDS011;52862;52.504;13.480;2023-05-10T00:23:27;20.57;;;8.63;;
51866;SDS011;52862;52.504;13.480;2023-05-10T00:25:54;15.83;;;8.33;;
51866;SDS011;52862;52.504;13.480;2023-05-10T00:28:21;20.30;;;6.63;;
51866;SDS011;52862;52.504;13.480;2023-05-10T00:30:48;17.80;;;6.73;;
51866;SDS011;52862;52.504;13.480;2023-05-10T00:33:15;33.80;;;6.67;;
51866;SDS011;52862;52.504;13.480;2023-05-10T00:35:42;17.60;;;6.30;;
51866;SDS011;52862;52.504;13.480;2023-05-10T00:38:08;16.70;;;6.30;;
51866;SDS011;52862;52.504;13.480;2023-05-10T00:40:36;21.67;;;6.07;;
51866;SDS011;52862;52.504;13.480;2023-05-10T00:43:03;10.30;;;5.23;;
51866;SDS011;52862;52.504;13.480;2023-05-10T00:45:31;18.07;;;6.37;;
51866;SDS011;52862;52.504;13.480;2023-05-10T00:47:59;14.93;;;7.43;;
51866;SDS011;52862;52.504;13.480;2023-05-10T00:50:26;14.30;;;6.27;;
51866;SDS011;52862;52.504;13.480;2023-05-10T00:52:53;12.43;;;6.20;;
51866;SDS011;52862;52.504;13.480;2023-05-10T00:55:20;10.20;;;6.07;;
51866;SDS011;52862;52.504;13.480;2023-05-10T00:57:48;9.10;;;5.63;;
51866;SDS011;52862;52.504;13.480;2023-05-10T01:00:15;14.10;;;6.70;;
51866;SDS011;52862;52.504;13.480;2023-05-10T01:02:44;12.37;;;6.10;;
51866;SDS011;52862;52.504;13.480;2023-05-10T01:05:11;10.87;;;6.07;;
51866;SDS011;52862;52.504;13.480;2023-05-10T01:07:39;10.60;;;5.63;;
51866;SDS011;52862;52.504;13.480;2023-05-10T01:10:07;10.60;;;5.80;;
51866;SDS011;52862;52.504;13.480;2023-05-10T01:12:34;17.40;;;6.40;;
51866;SDS011;52862;52.504;13.480;2023-05-10T01:15:03;14.13;;;6.37;;
51866;SDS011;52862;52.504;13.480;2023-05-10T01:17:30;12.80;;;6.20;;
51866;SDS011;52862;52.504;13.480;2023-05-10T01:19:57;20.43;;;5.83;;
51866;SDS011;52862;52.504;13.480;2023-05-10T01:22:34;13.77;;;6.10;;
51866;SDS011;52862;52.504;13.480;2023-05-10T01:25:23;12.13;;;5.93;;
51866;SDS011;52862;52.504;13.480;2023-05-10T01:33:26;11.13;;;6.63;;
51866;SDS011;52862;52.504;13.480;2023-05-10T01:35:55;10.83;;;6.60;;
51866;SDS011;52862;52.504;13.480;2023-05-10T01:38:27;23.13;;;6.50;;
51866;SDS011;52862;52.504;13.480;2023-05-10T01:40:58;13.00;;;6.43;;
51866;SDS011;52862;52.504;13.480;2023-05-10T01:43:33;11.53;;;6.20;;
51866;SDS011;52862;52.504;13.480;2023-05-10T01:46:04;15.10;;;6.23;;
51866;SDS011;52862;52.504;13.480;2023-05-10T01:48:37;15.07;;;5.97;;
51866;SDS011;52862;52.504;13.480;2023-05-10T01:51:04;15.23;;;6.70;;
51866;SDS011;52862;52.504;13.480;2023-05-10T01:53:31;12.90;;;6.87;;
51866;SDS011;52862;52.504;13.480;2023-05-10T01:56:01;11.07;;;6.20;;
51866;SDS011;52862;52.504;13.480;2023-05-10T01:58:29;18.43;;;6.37;;
51866;SDS011;52862;52.504;13.480;2023-05-10T02:00:57;12.80;;;5.90;;
51866;SDS011;52862;52.504;13.480;2023-05-10T02:03:24;14.17;;;6.43;;
51866;SDS011;52862;52.504;13.480;2023-05-10T02:05:53;13.90;;;6.10;;
51866;SDS011;52862;52.504;13.480;2023-05-10T02:08:21;10.33;;;5.97;;
51866;SDS011;52862;52.504;13.480;2023-05-10T02:10:48;10.40;;;5.90;;
51866;SDS011;52862;52.504;13.480;2023-05-10T02:13:17;14.03;;;6.50;;
51866;SDS011;52862;52.504;13.480;2023-05-10T02:15:45;14.90;;;5.60;;
51866;SDS011;52862;52.504;13.480;2023-05-10T02:18:13;19.17;;;6.30;;
51866;SDS011;52862;52.504;13.480;2023-05-10T02:20:41;12.87;;;6.27;;
51866;SDS011;52862;52.504;13.480;2023-05-10T02:23:09;11.90;;;6.27;;
51866;SDS011;52862;52.504;13.480;2023-05-10T02:25:36;11.63;;;5.73;;
51866;SDS011;52862;52.504;13.480;2023-05-10T02:28:04;14.27;;;6.53;;
51866;SDS011;52862;52.504;13.480;2023-05-10T02:30:32;11.80;;;5.83;;
51866;SDS011;52862;52.504;13.480;2023-05-10T02:33:00;15.57;;;6.83;;
51866;SDS011;52862;52.504;13.480;2023-05-10T02:35:28;13.70;;;6.57;;
51866;SDS011;52862;52.504;13.480;2023-05-10T02:37:56;15.40;;;7.10;;
51866;SDS011;52862;52.504;13.480;2023-05-10T02:40:25;19.00;;;6.17;;
51866;SDS011;52862;52.504;13.480;2023-05-10T02:42:54;18.13;;;6.30;;
51866;SDS011;52862;52.504;13.480;2023-05-10T02:45:22;17.63;;;5.80;;
51866;SDS011;52862;52.504;13.480;2023-05-10T02:47:50;17.00;;;8.57;;
51866;SDS011;52862;52.504;13.480;2023-05-10T02:50:17;17.20;;;6.03;;
51866;SDS011;52862;52.504;13.480;2023-05-10T02:52:45;13.37;;;6.57;;
51866;SDS011;52862;52.504;13.480;2023-05-10T02:55:14;12.60;;;6.30;;
51866;SDS011;52862;52.504;13.480;2023-05-10T02:57:43;18.83;;;5.63;;
51866;SDS011;52862;52.504;13.480;2023-05-10T03:00:13;10.53;;;5.97;;
51866;SDS011;52862;52.504;13.480;2023-05-10T03:02:40;22.13;;;5.93;;
51866;SDS011;52862;52.504;13.480;2023-05-10T03:05:07;11.37;;;5.50;;
51866;SDS011;52862;52.504;13.480;2023-05-10T03:07:34;10.67;;;5.83;;
51866;SDS011;52862;52.504;13.480;2023-05-10T03:10:02;13.40;;;5.57;;
51866;SDS011;52862;52.504;13.480;2023-05-10T03:12:31;10.67;;;5.77;;
51866;SDS011;52862;52.504;13.480;2023-05-10T03:15:03;17.43;;;6.40;;
51866;SDS011;52862;52.504;13.480;2023-05-10T03:17:34;12.77;;;6.70;;
51866;SDS011;52862;52.504;13.480;2023-05-10T03:20:03;17.20;;;6.87;;
51866;SDS011;52862;52.504;13.480;2023-05-10T03:22:32;17.83;;;5.83;;
51866;SDS011;52862;52.504;13.480;2023-05-10T03:24:59;10.53;;;5.43;;
51866;SDS011;52862;52.504;13.480;2023-05-10T03:27:27;18.07;;;6.17;;
51866;SDS011;52862;52.504;13.480;2023-05-10T03:29:54;12.60;;;5.87;;
51866;SDS011;52862;52.504;13.480;2023-05-10T03:32:22;16.87;;;5.73;;
51866;SDS011;52862;52.504;13.480;2023-05-10T03:34:49;11.93;;;5.77;;
51866;SDS011;52862;52.504;13.480;2023-05-10T03:37:16;21.87;;;6.57;;
51866;SDS011;52862;52.504;13.480;2023-05-10T03:39:43;14.47;;;6.27;;
51866;SDS011;52862;52.504;13.480;2023-05-10T03:42:10;13.67;;;6.13;;
51866;SDS011;52862;52.504;13.480;2023-05-10T03:44:37;22.83;;;6.43;;
51866;SDS011;52862;52.504;13.480;2023-05-10T03:47:04;20.90;;;8.43;;
51866;SDS011;52862;52.504;13.480;2023-05-10T03:49:32;18.80;;;6.30;;
51866;SDS011;52862;52.504;13.480;2023-05-10T03:51:59;19.63;;;6.83;;
51866;SDS011;52862;52.504;13.480;2023-05-10T03:54:26;25.77;;;6.27;;
51866;SDS011;52862;52.504;13.480;2023-05-10T03:56:53;14.07;;;5.60;;
51866;SDS011;52862;52.504;13.480;2023-05-10T03:59:20;29.43;;;6.27;;
51866;SDS011;52862;52.504;13.480;2023-05-10T04:01:47;32.17;;;6.37;;
51866;SDS011;52862;52.504;13.480;2023-05-10T04:04:14;14.30;;;6.13;;
51866;SDS011;52862;52.504;13.480;2023-05-10T04:06:41;15.40;;;5.10;;
51866;SDS011;52862;52.504;13.480;2023-05-10T04:09:08;14.90;;;6.10;;
51866;SDS011;52862;52.504;13.480;2023-05-10T04:11:35;14.60;;;5.70;;
51866;SDS011;52862;52.504;13.480;2023-05-10T04:14:02;19.43;;;5.50;;
51866;SDS011;52862;52.504;13.480;2023-05-10T04:16:29;21.93;;;6.30;;
51866;SDS011;52862;52.504;13.480;2023-05-10T04:18:56;11.67;;;5.50;;
51866;SDS011;52862;52.504;13.480;2023-05-10T04:21:23;18.03;;;5.50;;
51866;SDS011;52862;52.504;13.480;2023-05-10T04:23:50;16.77;;;5.57;;
51866;SDS011;52862;52.504;13.480;2023-05-10T04:26:17;10.63;;;5.73;;
51866;SDS011;52862;52.504;13.480;2023-05-10T04:28:44;16.83;;;5.83;;
51866;SDS011;52862;52.504;13.480;2023-05-10T04:31:11;10.77;;;5.07;;
51866;SDS011;52862;52.504;13.480;2023-05-10T04:33:38;12.87;;;5.33;;
51866;SDS011;52862;52.504;13.480;2023-05-10T04:36:05;13.10;;;5.27;;
51866;SDS011;52862;52.504;13.480;2023-05-10T04:38:32;14.73;;;4.97;;
51866;SDS011;52862;52.504;13.480;2023-05-10T04:41:06;23.23;;;5.43;;
51866;SDS011;52862;52.504;13.480;2023-05-10T04:43:33;16.27;;;5.80;;
51866;SDS011;52862;52.504;13.480;2023-05-10T04:46:00;14.30;;;5.53;;
51866;SDS011;52862;52.504;13.480;2023-05-10T04:48:27;20.93;;;4.90;;
51866;SDS011;52862;52.504;13.480;2023-05-10T04:50:55;10.13;;;5.27;;
51866;SDS011;52862;52.504;13.480;2023-05-10T04:53:22;10.00;;;5.03;;
51866;SDS011;52862;52.504;13.480;2023-05-10T04:55:48;26.90;;;4.63;;
51866;SDS011;52862;52.504;13.480;2023-05-10T04:58:16;13.33;;;5.23;;
51866;SDS011;52862;52.504;13.480;2023-05-10T05:00:43;10.20;;;4.80;;
51866;SDS011;52862;52.504;13.480;2023-05-10T05:03:10;10.20;;;4.90;;
51866;SDS011;52862;52.504;13.480;2023-05-10T05:05:37;18.50;;;4.80;;
51866;SDS011;52862;52.504;13.480;2023-05-10T05:08:04;14.53;;;4.87;;
51866;SDS011;52862;52.504;13.480;2023-05-10T05:10:31;16.57;;;5.23;;
51866;SDS011;52862;52.504;13.480;2023-05-10T05:12:58;11.80;;;5.97;;
51866;SDS011;52862;52.504;13.480;2023-05-10T05:15:26;11.97;;;4.47;;
51866;SDS011;52862;52.504;13.480;2023-05-10T05:17:53;13.93;;;4.80;;
51866;SDS011;52862;52.504;13.480;2023-05-10T05:20:20;10.53;;;4.67;;
51866;SDS011;52862;52.504;13.480;2023-05-10T05:22:47;24.50;;;6.23;;
51866;SDS011;52862;52.504;13.480;2023-05-10T05:25:15;14.60;;;5.67;;
51866;SDS011;52862;52.504;13.480;2023-05-10T05:27:42;12.23;;;5.43;;
51866;SDS011;52862;52.504;13.480;2023-05-10T05:30:09;32.53;;;6.57;;
51866;SDS011;52862;52.504;13.480;2023-05-10T05:32:37;10.83;;;4.30;;
51866;SDS011;52862;52.504;13.480;2023-05-10T05:35:04;24.57;;;8.47;;
51866;SDS011;52862;52.504;13.480;2023-05-10T05:37:31;11.20;;;4.57;;
51866;SDS011;52862;52.504;13.480;2023-05-10T05:39:58;26.80;;;9.47;;
51866;SDS011;52862;52.504;13.480;2023-05-10T05:42:27;21.47;;;5.13;;
51866;SDS011;52862;52.504;13.480;2023-05-10T05:44:54;15.53;;;4.67;;
51866;SDS011;52862;52.504;13.480;2023-05-10T05:47:21;18.60;;;5.13;;
51866;SDS011;52862;52.504;13.480;2023-05-10T05:49:48;19.60;;;4.73;;
51866;SDS011;52862;52.504;13.480;2023-05-10T05:52:15;10.90;;;4.57;;
51866;SDS011;52862;52.504;13.480;2023-05-10T05:54:42;24.87;;;6.03;;
51866;SDS011;52862;52.504;13.480;2023-05-10T05:57:09;12.07;;;4.33;;
51866;SDS011;52862;52.504;13.480;2023-05-10T05:59:36;12.50;;;3.87;;
51866;SDS011;52862;52.504;13.480;2023-05-10T06:02:07;9.67;;;3.90;;
51866;SDS011;52862;52.504;13.480;2023-05-10T06:04:34;15.50;;;3.80;;
51866;SDS011;52862;52.504;13.480;2023-05-10T06:07:02;8.17;;;3.97;;
51866;SDS011;52862;52.504;13.480;2023-05-10T06:09:28;20.53;;;3.83;;
51866;SDS011;52862;52.504;13.480;2023-05-10T06:11:55;23.40;;;6.73;;
51866;SDS011;52862;52.504;13.480;2023-05-10T06:14:22;11.13;;;3.90;;
51866;SDS011;52862;52.504;13.480;2023-05-10T06:16:49;12.70;;;4.00;;
51866;SDS011;52862;52.504;13.480;2023-05-10T06:19:16;22.20;;;7.00;;
51866;SDS011;52862;52.504;13.480;2023-05-10T06:21:43;21.13;;;3.83;;
51866;SDS011;52862;52.504;13.480;2023-05-10T06:24:11;14.50;;;4.17;;
51866;SDS011;52862;52.504;13.480;2023-05-10T06:26:38;12.57;;;4.77;;
51866;SDS011;52862;52.504;13.480;2023-05-10T06:29:05;29.90;;;8.07;;
51866;SDS011;52862;52.504;13.480;2023-05-10T06:31:31;21.20;;;5.70;;
51866;SDS011;52862;52.504;13.480;2023-05-10T06:33:58;13.97;;;5.57;;
51866;SDS011;52862;52.504;13.480;2023-05-10T06:36:25;14.27;;;5.47;;
51866;SDS011;52862;52.504;13.480;2023-05-10T06:38:52;28.17;;;10.07;;
51866;SDS011;52862;52.504;13.480;2023-05-10T06:41:20;31.97;;;10.07;;
51866;SDS011;52862;52.504;13.480;2023-05-10T06:43:50;13.93;;;3.70;;
51866;SDS011;52862;52.504;13.480;2023-05-10T06:46:16;18.63;;;5.50;;
51866;SDS011;52862;52.504;13.480;2023-05-10T06:48:44;11.60;;;3.47;;
51866;SDS011;52862;52.504;13.480;2023-05-10T06:51:11;18.70;;;6.43;;
51866;SDS011;52862;52.504;13.480;2023-05-10T06:53:38;11.87;;;4.07;;
51866;SDS011;52862;52.504;13.480;2023-05-10T06:56:05;13.30;;;3.37;;
51866;SDS011;52862;52.504;13.480;2023-05-10T06:58:33;12.53;;;5.10;;
51866;SDS011;52862;52.504;13.480;2023-05-10T07:01:02;24.37;;;7.30;;
51866;SDS011;52862;52.504;13.480;2023-05-10T07:03:30;13.13;;;3.77;;
51866;SDS011;52862;52.504;13.480;2023-05-10T07:06:00;15.10;;;3.50;;
51866;SDS011;52862;52.504;13.480;2023-05-10T07:08:28;40.10;;;11.17;;
51866;SDS011;52862;52.504;13.480;2023-05-10T07:10:59;15.57;;;3.80;;
51866;SDS011;52862;52.504;13.480;2023-05-10T07:13:26;7.27;;;2.90;;
51866;SDS011;52862;52.504;13.480;2023-05-10T07:15:53;7.30;;;3.03;;
51866;SDS011;52862;52.504;13.480;2023-05-10T07:18:20;12.13;;;2.87;;
51866;SDS011;52862;52.504;13.480;2023-05-10T07:20:47;6.33;;;3.10;;
51866;SDS011;52862;52.504;13.480;2023-05-10T07:23:14;10.40;;;2.97;;
51866;SDS011;52862;52.504;13.480;2023-05-10T07:25:44;6.27;;;2.90;;
51866;SDS011;52862;52.504;13.480;2023-05-10T07:28:11;8.27;;;3.40;;
51866;SDS011;52862;52.504;13.480;2023-05-10T07:30:38;10.30;;;3.03;;
51866;SDS011;52862;52.504;13.480;2023-05-10T07:33:06;10.10;;;2.90;;
51866;SDS011;52862;52.504;13.480;2023-05-10T07:35:33;20.33;;;2.97;;
51866;SDS011;52862;52.504;13.480;2023-05-10T07:38:01;5.47;;;2.97;;
51866;SDS011;52862;52.504;13.480;2023-05-10T07:40:28;10.07;;;3.33;;
51866;SDS011;52862;52.504;13.480;2023-05-10T07:42:55;13.87;;;3.00;;
51866;SDS011;52862;52.504;13.480;2023-05-10T07:45:22;7.10;;;3.00;;
51866;SDS011;52862;52.504;13.480;2023-05-10T07:47:49;12.30;;;2.90;;
51866;SDS011;52862;52.504;13.480;2023-05-10T07:50:17;5.30;;;3.03;;
51866;SDS011;52862;52.504;13.480;2023-05-10T07:52:43;17.70;;;3.90;;
51866;SDS011;52862;52.504;13.480;2023-05-10T07:55:10;9.33;;;3.00;;
51866;SDS011;52862;52.504;13.480;2023-05-10T07:57:37;6.03;;;3.10;;
51866;SDS011;52862;52.504;13.480;2023-05-10T08:00:05;11.10;;;3.20;;
51866;SDS011;52862;52.504;13.480;2023-05-10T08:02:32;7.40;;;2.77;;
51866;SDS011;52862;52.504;13.480;2023-05-10T08:04:59;9.57;;;2.70;;
51866;SDS011;52862;52.504;13.480;2023-05-10T08:07:27;11.95;;;3.30;;
51866;SDS011;52862;52.504;13.480;2023-05-10T08:09:54;11.02;;;3.10;;
51866;SDS011;52862;52.504;13.480;2023-05-10T08:12:21;22.48;;;3.15;;
51866;SDS011;52862;52.504;13.480;2023-05-10T08:14:47;9.60;;;2.70;;
51866;SDS011;52862;52.504;13.480;2023-05-10T08:17:15;12.27;;;3.00;;
51866;SDS011;52862;52.504;13.480;2023-05-10T08:19:44;5.37;;;2.87;;
51866;SDS011;52862;52.504;13.480;2023-05-10T08:22:11;13.13;;;3.00;;
51866;SDS011;52862;52.504;13.480;2023-05-10T08:24:39;9.63;;;3.43;;
51866;SDS011;52862;52.504;13.480;2023-05-10T08:27:07;4.83;;;2.60;;
51866;SDS011;52862;52.504;13.480;2023-05-10T08:29:34;5.32;;;2.53;;
51866;SDS011;52862;52.504;13.480;2023-05-10T08:32:15;13.30;;;3.23;;
51866;SDS011;52862;52.504;13.480;2023-05-10T08:34:42;8.57;;;3.35;;
51866;SDS011;52862;52.504;13.480;2023-05-10T08:37:09;6.75;;;2.67;;
51866;SDS011;52862;52.504;13.480;2023-05-10T08:39:39;7.22;;;2.83;;
51866;SDS011;52862;52.504;13.480;2023-05-10T08:42:06;5.50;;;2.60;;
51866;SDS011;52862;52.504;13.480;2023-05-10T08:44:34;15.13;;;3.13;;
51866;SDS011;52862;52.504;13.480;2023-05-10T08:47:02;6.63;;;2.80;;
51866;SDS011;52862;52.504;13.480;2023-05-10T08:49:31;14.20;;;2.67;;
51866;SDS011;52862;52.504;13.480;2023-05-10T08:51:58;8.02;;;2.90;;
51866;SDS011;52862;52.504;13.480;2023-05-10T08:54:26;6.60;;;2.60;;
51866;SDS011;52862;52.504;13.480;2023-05-10T08:56:53;4.43;;;2.78;;
51866;SDS011;52862;52.504;13.480;2023-05-10T08:59:20;12.35;;;2.92;;
51866;SDS011;52862;52.504;13.480;2023-05-10T09:01:47;6.35;;;3.10;;
51866;SDS011;52862;52.504;13.480;2023-05-10T09:04:14;3.97;;;2.78;;
51866;SDS011;52862;52.504;13.480;2023-05-10T09:06:41;8.30;;;3.05;;
51866;SDS011;52862;52.504;13.480;2023-05-10T09:09:08;7.47;;;2.55;;
51866;SDS011;52862;52.504;13.480;2023-05-10T09:11:35;8.43;;;2.53;;
51866;SDS011;52862;52.504;13.480;2023-05-10T09:14:03;15.00;;;3.40;;
51866;SDS011;52862;52.504;13.480;2023-05-10T09:16:30;8.48;;;3.03;;
51866;SDS011;52862;52.504;13.480;2023-05-10T09:18:57;5.25;;;2.53;;
51866;SDS011;52862;52.504;13.480;2023-05-10T09:21:24;7.93;;;3.00;;
51866;SDS011;52862;52.504;13.480;2023-05-10T09:23:51;6.78;;;2.97;;
51866;SDS011;52862;52.504;13.480;2023-05-10T09:26:21;14.65;;;2.63;;
51866;SDS011;52862;52.504;13.480;2023-05-10T09:28:52;7.90;;;2.80;;
51866;SDS011;52862;52.504;13.480;2023-05-10T09:31:20;8.48;;;2.80;;
51866;SDS011;52862;52.504;13.480;2023-05-10T09:33:47;7.00;;;2.88;;
51866;SDS011;52862;52.504;13.480;2023-05-10T09:36:15;7.60;;;2.70;;
51866;SDS011;52862;52.504;13.480;2023-05-10T09:38:45;13.98;;;2.97;;
51866;SDS011;52862;52.504;13.480;2023-05-10T09:41:15;7.80;;;2.63;;
51866;SDS011;52862;52.504;13.480;2023-05-10T09:43:42;5.35;;;2.40;;
51866;SDS011;52862;52.504;13.480;2023-05-10T09:46:09;8.25;;;3.08;;
51866;SDS011;52862;52.504;13.480;2023-05-10T09:48:40;10.30;;;2.95;;
51866;SDS011;52862;52.504;13.480;2023-05-10T09:51:08;9.40;;;2.75;;
51866;SDS011;52862;52.504;13.480;2023-05-10T09:53:35;13.77;;;2.60;;
51866;SDS011;52862;52.504;13.480;2023-05-10T09:56:02;11.05;;;3.15;;
51866;SDS011;52862;52.504;13.480;2023-05-10T09:58:29;10.13;;;2.72;;
51866;SDS011;52862;52.504;13.480;2023-05-10T10:00:56;7.38;;;3.05;;
51866;SDS011;52862;52.504;13.480;2023-05-10T10:03:23;4.88;;;2.33;;
51866;SDS011;52862;52.504;13.480;2023-05-10T10:05:51;5.22;;;2.72;;
51866;SDS011;52862;52.504;13.480;2023-05-10T10:08:18;5.95;;;2.80;;
51866;SDS011;52862;52.504;13.480;2023-05-10T10:10:46;13.50;;;2.58;;
51866;SDS011;52862;52.504;13.480;2023-05-10T10:13:13;13.48;;;2.83;;
51866;SDS011;52862;52.504;13.480;2023-05-10T10:15:40;12.27;;;2.78;;
51866;SDS011;52862;52.504;13.480;2023-05-10T10:18:09;10.77;;;3.03;;
51866;SDS011;52862;52.504;13.480;2023-05-10T10:20:39;11.50;;;2.50;;
51866;SDS011;52862;52.504;13.480;2023-05-10T10:23:06;10.82;;;2.72;;
51866;SDS011;52862;52.504;13.480;2023-05-10T10:25:34;7.47;;;2.60;;
51866;SDS011;52862;52.504;13.480;2023-05-10T10:28:08;16.08;;;2.78;;
51866;SDS011;52862;52.504;13.480;2023-05-10T10:30:39;6.65;;;3.05;;
51866;SDS011;52862;52.504;13.480;2023-05-10T10:33:15;9.07;;;2.90;;
51866;SDS011;52862;52.504;13.480;2023-05-10T10:35:54;9.27;;;2.78;;
51866;SDS011;52862;52.504;13.480;2023-05-10T10:38:22;8.65;;;2.83;;
51866;SDS011;52862;52.504;13.480;2023-05-10T10:40:55;10.23;;;3.20;;
51866;SDS011;52862;52.504;13.480;2023-05-10T10:43:28;12.88;;;2.88;;
51866;SDS011;52862;52.504;13.480;2023-05-10T10:46:14;18.95;;;3.00;;
51866;SDS011;52862;52.504;13.480;2023-05-10T10:48:41;5.82;;;2.85;;
51866;SDS011;52862;52.504;13.480;2023-05-10T10:51:13;3.80;;;2.40;;
51866;SDS011;52862;52.504;13.480;2023-05-10T10:53:41;11.02;;;2.78;;
51866;SDS011;52862;52.504;13.480;2023-05-10T10:56:08;9.18;;;2.83;;
51866;SDS011;52862;52.504;13.480;2023-05-10T10:58:36;4.82;;;2.60;;
51866;SDS011;52862;52.504;13.480;2023-05-10T11:01:13;8.60;;;2.47;;
51866;SDS011;52862;52.504;13.480;2023-05-10T11:03:41;13.10;;;2.65;;
51866;SDS011;52862;52.504;13.480;2023-05-10T11:06:28;21.83;;;2.78;;
51866;SDS011;52862;52.504;13.480;2023-05-10T11:08:56;11.77;;;2.88;;
51866;SDS011;52862;52.504;13.480;2023-05-10T11:11:23;10.77;;;2.70;;
51866;SDS011;52862;52.504;13.480;2023-05-10T11:13:50;6.72;;;2.80;;
51866;SDS011;52862;52.504;13.480;2023-05-10T11:16:18;5.72;;;2.83;;
51866;SDS011;52862;52.504;13.480;2023-05-10T11:18:51;8.02;;;2.90;;
51866;SDS011;52862;52.504;13.480;2023-05-10T11:21:19;12.45;;;2.70;;
51866;SDS011;52862;52.504;13.480;2023-05-10T11:23:50;10.18;;;2.35;;
51866;SDS011;52862;52.504;13.480;2023-05-10T11:26:18;9.77;;;2.45;;
51866;SDS011;52862;52.504;13.480;2023-05-10T11:28:48;12.30;;;2.97;;
51866;SDS011;52862;52.504;13.480;2023-05-10T11:31:16;10.55;;;2.20;;
51866;SDS011;52862;52.504;13.480;2023-05-10T11:33:45;8.65;;;2.63;;
51866;SDS011;52862;52.504;13.480;2023-05-10T11:36:13;10.07;;;2.60;;
51866;SDS011;52862;52.504;13.480;2023-05-10T11:38:40;8.80;;;2.95;;
51866;SDS011;52862;52.504;13.480;2023-05-10T11:41:08;4.53;;;2.15;;
51866;SDS011;52862;52.504;13.480;2023-05-10T11:43:36;8.65;;;2.33;;
51866;SDS011;52862;52.504;13.480;2023-05-10T11:46:04;7.05;;;2.45;;
51866;SDS011;52862;52.504;13.480;2023-05-10T11:48:31;9.63;;;2.60;;
51866;SDS011;52862;52.504;13.480;2023-05-10T11:50:58;14.57;;;2.80;;
51866;SDS011;52862;52.504;13.480;2023-05-10T11:53:25;5.50;;;2.38;;
51866;SDS011;52862;52.504;13.480;2023-05-10T11:55:53;15.98;;;2.88;;
51866;SDS011;52862;52.504;13.480;2023-05-10T11:58:19;9.20;;;3.10;;
51866;SDS011;52862;52.504;13.480;2023-05-10T12:00:49;32.17;;;2.97;;
51866;SDS011;52862;52.504;13.480;2023-05-10T12:03:16;35.33;;;2.95;;
51866;SDS011;52862;52.504;13.480;2023-05-10T12:05:43;12.52;;;2.80;;
51866;SDS011;52862;52.504;13.480;2023-05-10T12:08:11;7.97;;;2.17;;
51866;SDS011;52862;52.504;13.480;2023-05-10T12:10:38;5.97;;;2.40;;
51866;SDS011;52862;52.504;13.480;2023-05-10T12:13:05;4.68;;;2.05;;
51866;SDS011;52862;52.504;13.480;2023-05-10T12:15:37;14.00;;;2.80;;
51866;SDS011;52862;52.504;13.480;2023-05-10T12:18:04;27.33;;;2.40;;
51866;SDS011;52862;52.504;13.480;2023-05-10T12:20:31;6.82;;;2.67;;
51866;SDS011;52862;52.504;13.480;2023-05-10T12:22:58;8.82;;;2.35;;
51866;SDS011;52862;52.504;13.480;2023-05-10T12:25:29;7.45;;;2.67;;
51866;SDS011;52862;52.504;13.480;2023-05-10T12:27:57;6.93;;;2.72;;
51866;SDS011;52862;52.504;13.480;2023-05-10T12:30:26;12.80;;;2.53;;
51866;SDS011;52862;52.504;13.480;2023-05-10T12:32:54;4.82;;;2.40;;
51866;SDS011;52862;52.504;13.480;2023-05-10T12:35:27;10.80;;;2.60;;
51866;SDS011;52862;52.504;13.480;2023-05-10T12:37:56;8.70;;;2.50;;
51866;SDS011;52862;52.504;13.480;2023-05-10T12:40:23;3.95;;;2.30;;
51866;SDS011;52862;52.504;13.480;2023-05-10T12:42:49;8.80;;;2.22;;
51866;SDS011;52862;52.504;13.480;2023-05-10T12:45:17;11.27;;;2.60;;
51866;SDS011;52862;52.504;13.480;2023-05-10T12:47:44;22.70;;;2.80;;
51866;SDS011;52862;52.504;13.480;2023-05-10T12:50:11;7.32;;;2.20;;
51866;SDS011;52862;52.504;13.480;2023-05-10T12:52:39;10.15;;;2.30;;
51866;SDS011;52862;52.504;13.480;2023-05-10T12:55:06;11.02;;;2.00;;
51866;SDS011;52862;52.504;13.480;2023-05-10T12:57:33;2.63;;;2.05;;
51866;SDS011;52862;52.504;13.480;2023-05-10T13:00:00;11.63;;;2.65;;
51866;SDS011;52862;52.504;13.480;2023-05-10T13:02:27;13.55;;;2.55;;
51866;SDS011;52862;52.504;13.480;2023-05-10T13:04:54;8.10;;;2.55;;
51866;SDS011;52862;52.504;13.480;2023-05-10T13:07:21;8.40;;;2.15;;
51866;SDS011;52862;52.504;13.480;2023-05-10T13:09:48;7.55;;;2.17;;
51866;SDS011;52862;52.504;13.480;2023-05-10T13:12:15;7.70;;;2.40;;
51866;SDS011;52862;52.504;13.480;2023-05-10T13:14:42;7.88;;;3.58;;
51866;SDS011;52862;52.504;13.480;2023-05-10T13:17:09;6.80;;;2.17;;
51866;SDS011;52862;52.504;13.480;2023-05-10T13:19:36;18.50;;;2.33;;
51866;SDS011;52862;52.504;13.480;2023-05-10T13:22:03;8.50;;;2.47;;
51866;SDS011;52862;52.504;13.480;2023-05-10T13:24:30;4.88;;;2.60;;
51866;SDS011;52862;52.504;13.480;2023-05-10T13:26:58;11.27;;;2.75;;
51866;SDS011;52862;52.504;13.480;2023-05-10T13:29:25;10.93;;;2.03;;
51866;SDS011;52862;52.504;13.480;2023-05-10T13:31:52;5.82;;;2.53;;
51866;SDS011;52862;52.504;13.480;2023-05-10T13:34:19;5.72;;;2.30;;
51866;SDS011;52862;52.504;13.480;2023-05-10T13:36:46;9.23;;;2.42;;
51866;SDS011;52862;52.504;13.480;2023-05-10T13:39:14;5.68;;;2.20;;
51866;SDS011;52862;52.504;13.480;2023-05-10T13:41:41;7.85;;;2.72;;
51866;SDS011;52862;52.504;13.480;2023-05-10T13:44:09;5.68;;;2.00;;
51866;SDS011;52862;52.504;13.480;2023-05-10T13:46:36;5.82;;;2.10;;
51866;SDS011;52862;52.504;13.480;2023-05-10T13:49:04;11.95;;;2.05;;
51866;SDS011;52862;52.504;13.480;2023-05-10T13:51:31;8.40;;;1.95;;
51866;SDS011;52862;52.504;13.480;2023-05-10T13:53:58;8.00;;;2.20;;
51866;SDS011;52862;52.504;13.480;2023-05-10T13:56:24;6.47;;;2.28;;
51866;SDS011;52862;52.504;13.480;2023-05-10T13:58:52;10.23;;;2.30;;
51866;SDS011;52862;52.504;13.480;2023-05-10T14:01:19;3.97;;;2.00;;
51866;SDS011;52862;52.504;13.480;2023-05-10T14:03:46;22.30;;;2.88;;
51866;SDS011;52862;52.504;13.480;2023-05-10T14:06:13;7.93;;;1.85;;
51866;SDS011;52862;52.504;13.480;2023-05-10T14:08:40;6.03;;;2.13;;
51866;SDS011;52862;52.504;13.480;2023-05-10T14:11:07;10.43;;;1.83;;
51866;SDS011;52862;52.504;13.480;2023-05-10T14:13:34;11.82;;;2.08;;
51866;SDS011;52862;52.504;13.480;2023-05-10T14:16:02;7.30;;;2.00;;
51866;SDS011;52862;52.504;13.480;2023-05-10T14:18:29;11.95;;;3.05;;
51866;SDS011;52862;52.504;13.480;2023-05-10T14:20:56;9.93;;;1.80;;
51866;SDS011;52862;52.504;13.480;2023-05-10T14:23:23;7.65;;;1.77;;
51866;SDS011;52862;52.504;13.480;2023-05-10T14:25:51;10.85;;;2.33;;
51866;SDS011;52862;52.504;13.480;2023-05-10T14:28:18;4.80;;;1.70;;
51866;SDS011;52862;52.504;13.480;2023-05-10T14:30:46;5.28;;;2.08;;
51866;SDS011;52862;52.504;13.480;2023-05-10T14:33:13;5.97;;;1.98;;
51866;SDS011;52862;52.504;13.480;2023-05-10T14:35:40;7.10;;;1.88;;